Time;durP1;ratioP1;P1;durP2;ratioP2;P2;SDS_P1;SDS_P2;PMS_P1;PMS_P2;Temp;Humidity;BMP_temperature;BMP_pressure;BME280_temperature;BME280_humidity;BME280_pressure;Samples;Min_cycle;Max_cycle;Signal;HPM_P1;HPM_P2
2023/07/29 00:00:39;;;;;;;3.47;2.73;;;;;;;20.87;52.51;100846.47;5022025;28;20402;-74
2023/07/29 00:03:05;;;;;;;3.67;2.38;;;;;;;21.10;51.78;100850.16;5020436;28;20411;-74
2023/07/29 00:05:31;;;;;;;3.00;2.60;;;;;;;21.22;51.47;100845.59;5024118;28;20401;-74
2023/07/29 00:07:56;;;;;;;3.22;2.40;;;;;;;21.14;51.69;100854.03;5023596;28;20554;-74
2023/07/29 00:10:22;;;;;;;3.47;2.30;;;;;;;20.96;52.39;100850.44;5014246;28;20403;-74
2023/07/29 00:12:48;;;;;;;4.07;2.40;;;;;;;20.80;52.88;100853.84;5010062;28;20380;-75
2023/07/29 00:15:13;;;;;;;2.93;2.13;;;;;;;20.64;53.69;100858.03;5009999;28;20868;-74
2023/07/29 00:17:39;;;;;;;2.92;2.33;;;;;;;20.42;53.97;100863.16;5009438;28;20499;-74
2023/07/29 00:20:06;;;;;;;3.03;2.20;;;;;;;20.20;54.63;100862.84;5009376;28;20457;-74
2023/07/29 00:22:32;;;;;;;2.83;2.20;;;;;;;20.11;54.81;100858.84;5012614;28;20869;-74
2023/07/29 00:24:57;;;;;;;3.40;2.30;;;;;;;19.98;54.97;100847.22;5027687;28;20450;-74
2023/07/29 00:27:23;;;;;;;2.80;2.57;;;;;;;19.88;55.41;100860.44;5011744;28;20432;-74
2023/07/29 00:29:49;;;;;;;2.40;2.13;;;;;;;19.92;55.40;100853.53;5010143;28;20440;-75
2023/07/29 00:32:15;;;;;;;3.00;2.50;;;;;;;19.99;55.25;100850.75;5012199;28;20395;-74
2023/07/29 00:34:40;;;;;;;3.70;2.40;;;;;;;20.04;54.97;100851.72;5012077;28;20376;-75
2023/07/29 00:37:05;;;;;;;2.67;2.30;;;;;;;20.00;54.89;100858.56;5011392;28;20462;-74
2023/07/29 00:39:32;;;;;;;3.13;2.70;;;;;;;20.03;54.91;100851.94;5012058;28;20376;-74
2023/07/29 00:41:58;;;;;;;3.13;2.42;;;;;;;20.02;54.96;100852.97;5011881;28;20456;-74
2023/07/29 00:44:23;;;;;;;2.83;2.53;;;;;;;20.06;54.79;100851.47;5010870;28;20800;-74
2023/07/29 00:46:52;;;;;;;2.77;2.33;;;;;;;20.27;53.84;100847.41;5011697;28;20885;-74
2023/07/29 00:49:18;;;;;;;3.13;2.40;;;;;;;20.31;53.92;100859.38;5011674;28;20392;-74
2023/07/29 00:51:44;;;;;;;3.60;2.38;;;;;;;20.30;53.80;100852.34;5011890;28;20419;-74
2023/07/29 00:54:09;;;;;;;2.58;2.17;;;;;;;20.18;54.17;100846.09;5011608;28;20376;-74
2023/07/29 00:56:35;;;;;;;3.70;2.30;;;;;;;20.14;54.15;100851.13;5011457;28;20382;-75
2023/07/29 00:59:01;;;;;;;2.65;2.42;;;;;;;19.88;54.92;100848.81;5011569;28;20404;-75
2023/07/29 01:01:31;;;;;;;3.28;2.40;;;;;;;19.88;54.78;100846.97;5011850;28;20380;-75
2023/07/29 01:03:57;;;;;;;2.38;2.10;;;;;;;19.96;54.53;100845.81;5011159;28;20372;-75
2023/07/29 01:06:48;;;;;;;2.40;2.20;;;;;;;19.92;54.51;100844.66;5011354;28;20758;-74
2023/07/29 01:09:23;;;;;;;3.15;2.40;;;;;;;19.94;54.26;100837.97;5010306;28;20380;-75
2023/07/29 01:12:11;;;;;;;2.78;2.20;;;;;;;19.94;54.50;100824.53;5010427;28;20384;-75
2023/07/29 01:15:01;;;;;;;3.72;2.60;;;;;;;20.12;53.82;100828.22;5011304;28;20897;-75
2023/07/29 01:17:35;;;;;;;2.30;2.00;;;;;;;20.26;53.36;100835.03;5010981;28;20852;-75
2023/07/29 01:20:09;;;;;;;2.33;2.13;;;;;;;20.21;53.40;100833.00;5010876;28;20408;-75
2023/07/29 01:22:36;;;;;;;2.50;2.30;;;;;;;20.22;53.49;100828.44;5011244;28;20419;-75
2023/07/29 01:25:03;;;;;;;3.75;2.20;;;;;;;20.19;53.42;100831.63;5011080;28;20380;-75
2023/07/29 01:27:29;;;;;;;2.75;2.28;;;;;;;20.24;53.13;100827.19;5010909;28;20428;-75
2023/07/29 01:29:56;;;;;;;3.88;2.30;;;;;;;20.15;53.33;100831.25;5010923;28;20419;-75
2023/07/29 01:32:37;;;;;;;2.65;2.30;;;;;;;20.12;53.51;100845.16;5011017;28;20371;-75
2023/07/29 01:35:18;;;;;;;3.33;2.20;;;;;;;20.03;53.75;100843.84;5009810;28;20479;-75
2023/07/29 01:37:49;;;;;;;2.75;2.40;;;;;;;20.02;53.69;100845.75;5010770;28;20372;-75
2023/07/29 01:40:16;;;;;;;4.87;2.30;;;;;;;20.01;53.89;100844.09;5010498;28;20376;-74
2023/07/29 01:42:42;;;;;;;3.80;2.40;;;;;;;19.95;53.93;100845.00;5010686;28;20380;-75
2023/07/29 01:45:07;;;;;;;3.00;2.30;;;;;;;19.78;54.40;100838.63;5010656;28;20893;-74
2023/07/29 01:47:33;;;;;;;4.43;2.50;;;;;;;19.73;54.59;100847.38;5010440;28;20419;-74
2023/07/29 01:49:58;;;;;;;2.72;2.40;;;;;;;19.62;54.79;100846.22;5010617;28;20392;-74
2023/07/29 01:52:24;;;;;;;2.30;2.03;;;;;;;19.66;54.85;100854.66;5010631;28;20386;-74
2023/07/29 01:54:49;;;;;;;2.47;2.20;;;;;;;19.60;54.99;100847.53;5010482;28;20865;-74
2023/07/29 01:57:15;;;;;;;2.57;2.13;;;;;;;19.76;54.33;100846.91;5010414;28;20419;-74
2023/07/29 01:59:40;;;;;;;3.60;2.10;;;;;;;19.67;54.77;100857.13;5022990;28;20858;-75
2023/07/29 02:02:06;;;;;;;4.30;2.25;;;;;;;19.25;55.88;100862.41;5029840;28;20385;-75
2023/07/29 02:04:31;;;;;;;2.30;2.10;;;;;;;19.34;55.62;100857.56;5030110;28;20791;-74
2023/07/29 02:06:57;;;;;;;3.63;2.20;;;;;;;19.55;54.92;100852.75;5028817;28;20395;-75
2023/07/29 02:09:22;;;;;;;3.77;2.33;;;;;;;19.68;54.50;100863.34;5033973;28;20531;-74
2023/07/29 02:11:48;;;;;;;3.07;2.10;;;;;;;19.73;54.30;100858.13;5033430;28;20385;-74
2023/07/29 02:14:13;;;;;;;2.60;2.17;;;;;;;19.77;54.27;100853.09;5032952;28;20572;-74
2023/07/29 02:16:39;;;;;;;3.80;2.47;;;;;;;19.75;54.13;100856.03;5030668;28;20375;-74
2023/07/29 02:19:04;;;;;;;3.80;2.40;;;;;;;19.74;54.33;100854.41;5030080;28;20754;-74
2023/07/29 02:21:30;;;;;;;2.63;1.90;;;;;;;19.79;54.18;100853.69;5029731;28;20471;-74
2023/07/29 02:23:55;;;;;;;2.70;2.20;;;;;;;19.82;53.97;100859.44;5029836;28;20382;-74
2023/07/29 02:26:21;;;;;;;3.95;2.42;;;;;;;19.95;53.53;100858.47;5029814;28;20768;-74
2023/07/29 02:28:47;;;;;;;4.47;2.50;;;;;;;19.99;53.21;100865.03;5030734;28;20437;-74
2023/07/29 02:31:16;;;;;;;3.23;2.53;;;;;;;19.85;53.37;100860.88;5029552;28;20852;-74
2023/07/29 02:33:41;;;;;;;3.47;2.40;;;;;;;19.82;53.69;100872.09;5029660;28;20378;-74
2023/07/29 02:36:07;;;;;;;2.40;2.20;;;;;;;19.68;54.08;100876.81;5029649;28;20370;-74
2023/07/29 02:38:32;;;;;;;2.50;2.27;;;;;;;19.57;54.41;100881.06;5029574;28;20404;-75
2023/07/29 02:40:58;;;;;;;2.93;2.40;;;;;;;19.57;54.36;100877.53;5029775;28;20461;-75
2023/07/29 02:43:23;;;;;;;3.88;2.33;;;;;;;19.56;54.62;100881.28;5029851;28;20378;-73
2023/07/29 02:45:49;;;;;;;4.67;2.63;;;;;;;19.62;54.47;100891.13;5029352;28;20393;-74
2023/07/29 02:48:14;;;;;;;3.10;2.50;;;;;;;19.63;54.42;100887.41;5029819;28;20382;-74
2023/07/29 02:50:39;;;;;;;2.67;2.30;;;;;;;19.71;54.07;100892.47;5028531;28;20948;-74
2023/07/29 02:53:05;;;;;;;3.73;2.50;;;;;;;19.76;53.68;100879.19;5032169;28;20385;-75
2023/07/29 02:55:30;;;;;;;2.63;2.43;;;;;;;19.88;53.39;100879.25;5033601;28;20382;-75
2023/07/29 02:57:56;;;;;;;4.20;2.60;;;;;;;19.95;53.10;100882.69;5032752;28;20473;-75
2023/07/29 03:00:21;;;;;;;5.47;3.00;;;;;;;20.04;52.77;100875.94;5033470;28;20374;-75
2023/07/29 03:02:47;;;;;;;3.38;2.70;;;;;;;20.10;52.61;100879.56;5033666;28;20389;-75
2023/07/29 03:05:12;;;;;;;3.97;2.77;;;;;;;20.08;52.58;100876.28;5033631;28;20409;-75
2023/07/29 03:07:38;;;;;;;3.33;2.40;;;;;;;20.12;52.52;100879.34;5033547;28;20445;-75
2023/07/29 03:10:03;;;;;;;3.15;2.70;;;;;;;20.15;52.30;100876.16;5034070;28;20471;-74
2023/07/29 03:12:29;;;;;;;3.80;2.70;;;;;;;20.20;52.11;100884.38;5033881;28;20370;-75
2023/07/29 03:14:56;;;;;;;3.70;2.73;;;;;;;20.14;51.93;100878.03;5033496;28;20374;-74
2023/07/29 03:17:21;;;;;;;6.93;3.73;;;;;;;20.16;51.89;100870.56;5033541;28;20363;-75
2023/07/29 03:19:46;;;;;;;5.40;4.90;;;;;;;20.21;51.85;100867.19;5033315;28;20388;-75
2023/07/29 03:22:12;;;;;;;6.50;5.50;;;;;;;20.23;51.77;100868.59;5033587;28;20705;-75
2023/07/29 03:24:37;;;;;;;5.60;4.50;;;;;;;20.27;51.59;100857.38;5033265;28;20406;-74
2023/07/29 03:27:03;;;;;;;6.90;5.20;;;;;;;20.25;51.53;100866.47;5033206;28;20413;-75
2023/07/29 03:29:28;;;;;;;7.15;5.07;;;;;;;20.24;51.83;100875.63;5032869;28;20382;-75
2023/07/29 03:31:54;;;;;;;3.03;2.67;;;;;;;20.16;52.11;100888.59;5032584;28;20398;-75
2023/07/29 03:34:20;;;;;;;4.28;3.10;;;;;;;20.10;52.43;100886.81;5023180;28;20529;-75
2023/07/29 03:36:47;;;;;;;5.53;3.23;;;;;;;20.13;52.45;100887.19;5019719;28;20395;-75
2023/07/29 03:39:13;;;;;;;6.10;2.92;;;;;;;20.23;52.21;100889.31;5023112;28;20390;-74
2023/07/29 03:41:39;;;;;;;5.53;3.10;;;;;;;20.23;52.26;100890.13;5031228;28;20723;-76
2023/07/29 03:44:04;;;;;;;7.50;5.03;;;;;;;20.21;52.48;100896.81;5030041;28;21051;-75
2023/07/29 03:46:31;;;;;;;5.27;2.80;;;;;;;20.18;52.59;100911.53;5029924;28;20550;-75
2023/07/29 03:48:57;;;;;;;3.30;2.70;;;;;;;20.09;52.64;100902.13;5030264;28;20436;-74
2023/07/29 03:51:24;;;;;;;5.38;2.63;;;;;;;20.09;52.83;100906.69;5030675;28;20859;-76
2023/07/29 03:53:50;;;;;;;3.38;2.40;;;;;;;20.05;52.75;100892.88;5031575;28;20371;-75
2023/07/29 03:56:15;;;;;;;4.17;2.90;;;;;;;20.15;52.54;100901.22;5032559;28;20773;-75
2023/07/29 03:58:41;;;;;;;5.03;2.78;;;;;;;20.31;52.21;100897.06;5032900;28;20452;-75
2023/07/29 04:01:07;;;;;;;7.30;3.10;;;;;;;20.43;51.93;100897.09;5031928;28;20406;-75
2023/07/29 04:03:34;;;;;;;4.50;2.95;;;;;;;20.64;51.72;100892.25;5013269;28;20497;-75
2023/07/29 04:05:59;;;;;;;4.30;2.83;;;;;;;20.85;51.28;100885.44;5012704;28;20438;-75
2023/07/29 04:08:25;;;;;;;5.73;3.00;;;;;;;20.96;50.98;100888.16;5012138;28;20384;-75
2023/07/29 04:10:50;;;;;;;6.18;3.30;;;;;;;20.97;50.96;100895.16;5015335;28;20391;-75
2023/07/29 04:13:16;;;;;;;5.97;3.27;;;;;;;20.84;51.28;100903.50;5020917;28;20958;-75
2023/07/29 04:15:41;;;;;;;4.65;2.58;;;;;;;20.66;51.73;100909.00;5022408;28;20381;-73
2023/07/29 04:18:07;;;;;;;5.53;3.00;;;;;;;20.64;51.90;100903.03;5021994;28;20376;-74
2023/07/29 04:20:33;;;;;;;4.25;2.80;;;;;;;20.72;51.84;100905.34;5021670;28;20387;-74
2023/07/29 04:22:59;;;;;;;5.65;3.35;;;;;;;20.81;51.77;100903.97;5022498;28;20393;-74
2023/07/29 04:25:24;;;;;;;7.00;3.40;;;;;;;21.05;51.58;100903.97;5023614;28;20473;-75
2023/07/29 04:27:50;;;;;;;5.77;3.60;;;;;;;21.30;50.75;100899.16;5020960;28;20406;-74
2023/07/29 04:30:15;;;;;;;6.93;3.30;;;;;;;21.30;50.76;100893.75;5022838;28;20386;-74
2023/07/29 04:32:42;;;;;;;5.47;3.53;;;;;;;21.63;50.52;100888.78;5023142;28;20384;-74
2023/07/29 04:35:09;;;;;;;5.10;2.70;;;;;;;21.96;50.17;100886.19;5022107;28;20402;-74
2023/07/29 04:37:34;;;;;;;4.78;2.88;;;;;;;22.09;49.48;100898.59;5022987;28;20448;-74
2023/07/29 04:39:59;;;;;;;3.13;2.60;;;;;;;22.26;49.34;100895.09;5022293;28;20380;-75
2023/07/29 04:42:25;;;;;;;5.17;3.90;;;;;;;22.44;48.70;100896.78;5021233;28;20413;-74
2023/07/29 04:44:50;;;;;;;6.63;3.63;;;;;;;22.60;48.20;100889.72;5023002;28;20386;-74
2023/07/29 04:47:16;;;;;;;6.03;3.58;;;;;;;22.55;48.59;100895.06;5020276;28;20421;-74
2023/07/29 04:49:41;;;;;;;4.53;3.20;;;;;;;22.58;48.38;100890.00;5021273;28;20380;-74
2023/07/29 04:52:07;;;;;;;4.43;3.20;;;;;;;22.78;48.00;100894.88;5019586;28;20433;-74
2023/07/29 04:54:32;;;;;;;5.22;3.13;;;;;;;23.00;47.36;100896.84;5022007;28;20864;-74
2023/07/29 04:56:58;;;;;;;4.50;2.70;;;;;;;23.06;47.11;100888.56;5028425;28;20416;-74
2023/07/29 04:59:23;;;;;;;6.57;3.00;;;;;;;23.14;46.94;100891.91;5031276;28;20404;-75
2023/07/29 05:01:49;;;;;;;5.05;2.67;;;;;;;23.33;46.89;100895.94;5030459;28;20804;-74
2023/07/29 05:04:15;;;;;;;4.97;3.10;;;;;;;23.42;46.46;100890.94;5031748;28;20444;-74
2023/07/29 05:06:40;;;;;;;4.72;2.90;;;;;;;23.52;46.29;100891.06;5031889;28;20416;-76
2023/07/29 05:09:17;;;;;;;5.60;3.17;;;;;;;23.69;46.04;100901.00;5024537;28;20486;-74
2023/07/29 05:11:45;;;;;;;4.88;3.35;;;;;;;23.80;45.72;100897.34;5025716;28;20428;-75
2023/07/29 05:14:11;;;;;;;5.28;2.90;;;;;;;23.94;45.85;100895.06;5019902;28;20398;-74
2023/07/29 05:16:36;;;;;;;3.78;2.72;;;;;;;24.02;45.44;100897.31;5031712;28;20695;-75
2023/07/29 05:19:02;;;;;;;3.83;3.10;;;;;;;24.15;45.17;100896.09;5031953;28;20851;-75
2023/07/29 05:21:27;;;;;;;3.47;2.83;;;;;;;24.21;44.37;100893.16;5041970;28;20370;-73
2023/07/29 05:23:53;;;;;;;5.43;3.20;;;;;;;24.39;44.38;100905.53;5034833;28;20392;-74
2023/07/29 05:26:18;;;;;;;4.23;3.20;;;;;;;24.56;44.22;100901.88;5030426;28;20938;-74
2023/07/29 05:28:44;;;;;;;4.05;2.75;;;;;;;24.70;43.93;100910.41;5031919;28;20467;-74
2023/07/29 05:31:09;;;;;;;3.20;2.60;;;;;;;24.79;43.94;100903.41;5030049;28;20396;-74
2023/07/29 05:33:36;;;;;;;4.53;2.60;;;;;;;24.88;43.72;100918.13;5011432;28;20384;-75
2023/07/29 05:36:01;;;;;;;4.80;2.50;;;;;;;24.95;43.27;100910.56;5010348;28;20390;-74
2023/07/29 05:38:27;;;;;;;3.53;2.70;;;;;;;25.09;43.08;100920.97;5011692;28;20388;-74
2023/07/29 05:40:52;;;;;;;7.77;2.60;;;;;;;25.08;42.61;100920.16;5010038;28;20415;-75
2023/07/29 05:43:18;;;;;;;4.10;2.90;;;;;;;24.78;42.46;100924.31;5008821;28;20399;-74
2023/07/29 05:45:43;;;;;;;4.07;3.15;;;;;;;24.73;42.58;100926.16;5008954;28;20388;-75
2023/07/29 05:48:09;;;;;;;7.07;3.00;;;;;;;24.69;42.62;100920.44;5009341;28;20404;-76
2023/07/29 05:50:34;;;;;;;6.13;3.50;;;;;;;24.59;42.92;100928.47;5009812;28;20388;-74
2023/07/29 05:52:59;;;;;;;6.53;3.70;;;;;;;24.59;43.13;100929.28;5010023;28;20918;-74
2023/07/29 05:55:25;;;;;;;4.72;3.47;;;;;;;24.78;43.08;100934.34;5010107;28;20413;-74
2023/07/29 05:57:50;;;;;;;6.72;3.65;;;;;;;24.92;42.77;100938.25;5011331;28;20461;-76
2023/07/29 06:00:16;;;;;;;5.10;3.00;;;;;;;24.94;42.62;100940.69;5011331;28;20872;-76
2023/07/29 06:02:41;;;;;;;5.50;3.37;;;;;;;24.91;42.77;100933.06;5011616;28;20947;-75
2023/07/29 06:05:07;;;;;;;4.75;3.22;;;;;;;24.94;42.92;100933.38;5012012;28;20399;-74
2023/07/29 06:07:33;;;;;;;4.17;3.03;;;;;;;25.19;42.66;100934.59;5011461;28;20517;-75
2023/07/29 06:09:59;;;;;;;4.80;3.30;;;;;;;25.30;42.43;100924.63;5010079;28;20745;-76
2023/07/29 06:12:25;;;;;;;4.72;3.00;;;;;;;25.33;42.54;100921.41;5011396;28;20866;-75
2023/07/29 06:14:50;;;;;;;5.97;3.30;;;;;;;25.31;42.64;100921.66;5012080;28;20392;-76
2023/07/29 06:17:16;;;;;;;4.53;3.00;;;;;;;25.23;42.55;100916.72;5011160;28;20388;-78
2023/07/29 06:19:41;;;;;;;7.10;3.07;;;;;;;25.29;42.64;100915.69;5011855;28;20517;-74
2023/07/29 06:22:07;;;;;;;7.17;2.80;;;;;;;25.47;42.00;100924.47;5012032;28;20388;-75
2023/07/29 06:24:32;;;;;;;4.97;3.00;;;;;;;25.80;41.99;100925.94;5011932;28;20399;-76
2023/07/29 06:26:58;;;;;;;3.83;2.92;;;;;;;25.99;41.53;100920.88;5010179;28;20869;-75
2023/07/29 06:29:24;;;;;;;4.53;2.60;;;;;;;25.99;41.40;100918.16;5011256;28;20924;-73
2023/07/29 06:31:51;;;;;;;6.17;2.80;;;;;;;26.10;41.27;100921.72;5011260;28;20387;-75
2023/07/29 06:34:17;;;;;;;3.38;2.70;;;;;;;26.15;41.28;100924.44;5010600;28;20733;-76
2023/07/29 06:36:43;;;;;;;3.60;2.80;;;;;;;26.29;40.73;100919.31;5011359;28;20868;-75
2023/07/29 06:39:09;;;;;;;4.05;2.90;;;;;;;26.52;40.83;100924.19;5010801;28;20380;-75
2023/07/29 06:41:35;;;;;;;5.55;2.72;;;;;;;26.73;40.44;100918.78;5011214;28;20391;-75
2023/07/29 06:44:00;;;;;;;4.60;2.87;;;;;;;26.66;40.56;100913.59;5011137;28;20845;-75
2023/07/29 06:46:26;;;;;;;4.30;3.10;;;;;;;26.68;40.09;100914.16;5011069;28;20535;-75
2023/07/29 06:48:51;;;;;;;3.28;2.70;;;;;;;26.75;40.68;100916.59;5011079;28;20419;-75
2023/07/29 06:51:17;;;;;;;5.60;2.90;;;;;;;26.92;40.10;100918.19;5010749;28;20384;-75
2023/07/29 06:53:42;;;;;;;4.10;2.90;;;;;;;26.99;40.17;100910.56;5010777;28;20420;-74
2023/07/29 06:56:08;;;;;;;3.63;2.60;;;;;;;27.07;39.89;100913.53;5011081;28;20376;-74
2023/07/29 06:58:34;;;;;;;5.82;3.97;;;;;;;27.17;39.82;100912.72;5011168;28;20408;-75
2023/07/29 07:00:59;;;;;;;5.22;2.90;;;;;;;27.29;39.19;100919.78;5028617;28;20483;-76
2023/07/29 07:03:25;;;;;;;3.77;2.53;;;;;;;27.36;38.86;100912.13;5023786;28;20398;-76
2023/07/29 07:05:51;;;;;;;5.10;2.90;;;;;;;27.48;38.50;100909.91;5023089;28;20402;-76
2023/07/29 07:08:16;;;;;;;4.05;2.92;;;;;;;27.32;38.65;100911.06;5021286;28;20908;-75
2023/07/29 07:10:42;;;;;;;6.43;3.13;;;;;;;27.39;38.87;100914.31;5029747;28;20806;-75
2023/07/29 07:13:07;;;;;;;5.20;3.10;;;;;;;27.60;38.72;100912.31;5028591;28;20386;-75
2023/07/29 07:15:32;;;;;;;3.80;3.40;;;;;;;27.69;38.24;100907.91;5029296;28;20378;-76
2023/07/29 07:17:58;;;;;;;4.57;3.10;;;;;;;27.69;38.46;100912.53;5029488;28;20386;-75
2023/07/29 07:20:23;;;;;;;5.00;2.70;;;;;;;27.66;38.06;100908.47;5029407;28;20448;-75
2023/07/29 07:22:49;;;;;;;3.10;2.80;;;;;;;27.80;37.59;100911.38;5029982;28;20404;-75
2023/07/29 07:25:14;;;;;;;5.40;3.10;;;;;;;27.98;38.00;100909.94;5032411;28;20375;-73
2023/07/29 07:27:40;;;;;;;5.20;2.90;;;;;;;28.14;38.05;100908.75;5031056;28;20501;-74
2023/07/29 07:30:06;;;;;;;5.63;2.90;;;;;;;28.28;37.45;100905.38;5031341;28;20385;-75
2023/07/29 07:32:31;;;;;;;6.25;3.20;;;;;;;28.39;37.60;100896.03;5031817;28;20485;-75
2023/07/29 07:34:57;;;;;;;4.80;2.80;;;;;;;28.72;37.76;100897.13;5031121;28;20379;-75
2023/07/29 07:37:22;;;;;;;5.20;3.10;;;;;;;28.79;38.41;100897.59;5030948;28;20409;-75
2023/07/29 07:39:49;;;;;;;5.33;3.10;;;;;;;28.92;38.60;100901.56;5034891;28;20401;-75
2023/07/29 07:42:15;;;;;;;5.45;2.90;;;;;;;29.18;38.15;100901.31;5035002;28;20417;-76
2023/07/29 07:44:40;;;;;;;4.27;2.97;;;;;;;29.32;38.05;100904.97;5034551;28;20410;-75
2023/07/29 07:47:06;;;;;;;4.83;3.00;;;;;;;29.41;37.95;100894.22;5035359;28;20398;-74
2023/07/29 07:49:31;;;;;;;4.10;3.00;;;;;;;29.48;37.81;100902.84;5033409;28;20390;-75
2023/07/29 07:51:57;;;;;;;4.65;3.10;;;;;;;29.64;37.56;100898.00;5036378;28;20378;-76
2023/07/29 07:54:22;;;;;;;3.93;3.03;;;;;;;29.77;37.29;100892.97;5037930;28;20466;-75
2023/07/29 07:56:48;;;;;;;5.70;3.03;;;;;;;29.97;36.80;100892.66;5035512;28;20691;-74
2023/07/29 07:59:13;;;;;;;6.20;3.40;;;;;;;30.04;36.92;100890.34;5034837;28;20408;-76
2023/07/29 08:01:39;;;;;;;5.30;3.33;;;;;;;30.14;36.87;100883.91;5034696;28;20421;-74
2023/07/29 08:04:05;;;;;;;3.90;2.97;;;;;;;30.29;36.52;100882.88;5034342;28;20410;-77
2023/07/29 08:06:31;;;;;;;6.18;3.05;;;;;;;30.48;36.11;100880.09;5034196;28;20463;-75
2023/07/29 08:08:57;;;;;;;6.80;3.07;;;;;;;30.62;36.12;100882.88;5035152;28;20473;-75
2023/07/29 08:11:23;;;;;;;5.72;3.00;;;;;;;30.67;36.25;100877.31;5034606;28;20768;-75
2023/07/29 08:13:48;;;;;;;5.87;3.40;;;;;;;30.79;35.77;100879.53;5034454;28;20378;-76
2023/07/29 08:16:14;;;;;;;3.50;2.90;;;;;;;30.84;35.85;100874.78;5035420;28;20410;-76
2023/07/29 08:18:39;;;;;;;5.40;3.08;;;;;;;30.93;35.32;100876.84;5033054;28;20383;-76
2023/07/29 08:21:05;;;;;;;5.00;3.87;;;;;;;31.14;35.21;100882.75;5032549;28;20382;-76
2023/07/29 08:23:34;;;;;;;5.57;3.30;;;;;;;31.17;34.80;100876.63;5032654;28;20568;-74
2023/07/29 08:26:02;;;;;;;4.60;3.20;;;;;;;31.33;34.40;100874.41;5032496;28;20429;-75
2023/07/29 08:28:31;;;;;;;6.93;3.10;;;;;;;31.44;33.72;100870.34;5034909;28;20386;-75
2023/07/29 08:30:57;;;;;;;4.33;3.17;;;;;;;31.52;33.35;100868.81;5036299;28;20869;-75
2023/07/29 08:33:23;;;;;;;5.75;3.13;;;;;;;31.65;33.62;100865.22;5034982;28;20469;-76
2023/07/29 08:35:48;;;;;;;5.67;3.03;;;;;;;31.86;33.24;100862.03;5033583;28;20374;-74
2023/07/29 08:38:14;;;;;;;5.10;3.30;;;;;;;31.88;32.91;100859.78;5034626;28;20900;-75
2023/07/29 08:40:45;;;;;;;5.10;2.88;;;;;;;31.72;32.69;100857.41;5033811;28;20421;-77
2023/07/29 08:43:14;;;;;;;5.07;3.15;;;;;;;31.70;33.06;100858.84;5033778;28;20386;-76
2023/07/29 08:45:40;;;;;;;6.10;2.97;;;;;;;31.84;33.08;100851.38;5033613;28;20366;-75
2023/07/29 08:48:11;;;;;;;5.43;3.40;;;;;;;31.97;32.42;100853.25;5033153;28;20391;-76
2023/07/29 08:50:37;;;;;;;4.38;2.83;;;;;;;32.15;31.93;100854.19;5032898;28;20461;-75
2023/07/29 08:53:05;;;;;;;2.95;2.25;;;;;;;32.22;31.22;100853.78;5034149;28;20420;-75
2023/07/29 08:55:32;;;;;;;5.97;2.70;;;;;;;32.31;30.41;100856.56;5033473;28;20436;-75
2023/07/29 08:57:59;;;;;;;5.22;2.60;;;;;;;32.48;30.50;100847.63;5033699;28;20402;-75
2023/07/29 09:00:25;;;;;;;2.95;2.55;;;;;;;32.63;30.63;100844.50;5032716;28;20952;-76
2023/07/29 09:02:51;;;;;;;4.07;2.42;;;;;;;32.72;30.10;100848.09;5033412;28;20373;-75
2023/07/29 09:05:16;;;;;;;3.93;2.53;;;;;;;32.58;30.15;100839.94;5033532;28;20374;-76
2023/07/29 09:07:43;;;;;;;4.03;2.47;;;;;;;32.64;29.71;100845.31;5032277;28;20401;-76
2023/07/29 09:10:12;;;;;;;2.70;2.00;;;;;;;32.73;29.46;100832.41;5032561;28;20374;-75
2023/07/29 09:12:38;;;;;;;3.67;2.30;;;;;;;32.75;28.84;100843.88;5032895;28;20382;-76
2023/07/29 09:15:05;;;;;;;3.72;2.40;;;;;;;32.85;28.70;100842.81;5032608;28;20374;-75
2023/07/29 09:17:32;;;;;;;4.70;2.30;;;;;;;32.98;28.41;100841.88;5033074;28;20366;-75
2023/07/29 09:19:58;;;;;;;3.83;2.30;;;;;;;33.01;28.50;100840.41;5032377;28;20819;-75
2023/07/29 09:22:25;;;;;;;4.40;2.33;;;;;;;33.07;28.39;100836.41;5032303;28;20910;-76
2023/07/29 09:24:51;;;;;;;2.92;1.98;;;;;;;33.13;27.57;100835.16;5032553;28;20466;-75
2023/07/29 09:27:27;;;;;;;3.05;2.17;;;;;;;33.18;27.51;100829.50;5032570;28;20869;-74
2023/07/29 09:29:54;;;;;;;3.22;2.17;;;;;;;33.34;27.88;100827.91;5033309;28;20394;-75
2023/07/29 09:32:21;;;;;;;3.05;2.28;;;;;;;33.50;27.09;100833.75;5033462;28;20378;-74
2023/07/29 09:34:46;;;;;;;4.03;1.90;;;;;;;33.43;26.57;100827.94;5033148;28;20397;-76
2023/07/29 09:37:17;;;;;;;3.55;2.10;;;;;;;33.66;26.54;100816.81;5032672;28;20911;-76
2023/07/29 09:39:46;;;;;;;3.80;1.92;;;;;;;33.63;26.29;100814.69;5032633;28;20366;-74
2023/07/29 09:42:20;;;;;;;3.00;2.03;;;;;;;33.64;27.24;100819.06;5032424;28;20377;-76
2023/07/29 09:44:48;;;;;;;4.23;2.23;;;;;;;33.86;26.98;100823.59;5033859;28;20854;-75
2023/07/29 09:47:22;;;;;;;3.37;2.30;;;;;;;34.02;27.05;100812.91;5032205;28;20429;-76
2023/07/29 09:49:47;;;;;;;3.88;2.20;;;;;;;34.14;26.67;100817.72;5033695;28;20379;-76
2023/07/29 09:52:17;;;;;;;2.65;2.10;;;;;;;34.35;26.67;100806.84;5032621;28;21118;-75
2023/07/29 09:54:46;;;;;;;2.40;1.98;;;;;;;34.36;26.33;100800.19;5033543;28;20410;-76
2023/07/29 09:57:17;;;;;;;4.57;2.00;;;;;;;34.37;26.00;100801.81;5033333;28;20393;-75
2023/07/29 09:59:43;;;;;;;6.13;2.00;;;;;;;34.25;25.60;100795.06;5032175;28;20440;-75
2023/07/29 10:02:15;;;;;;;3.10;2.30;;;;;;;34.29;26.13;100797.97;5031532;28;20431;-74
2023/07/29 10:04:45;;;;;;;3.70;2.17;;;;;;;34.23;26.32;100789.09;5032961;28;20373;-75
2023/07/29 10:07:12;;;;;;;2.45;2.13;;;;;;;34.21;26.19;100787.78;5032370;28;20404;-75
2023/07/29 10:09:39;;;;;;;2.55;2.08;;;;;;;34.33;26.22;100798.13;5031762;28;20374;-74
2023/07/29 10:12:06;;;;;;;3.00;2.20;;;;;;;34.45;26.53;100796.28;5031754;28;20421;-74
2023/07/29 10:14:32;;;;;;;3.45;2.00;;;;;;;34.40;26.15;100796.47;5032180;28;20374;-75
2023/07/29 10:16:59;;;;;;;5.00;2.20;;;;;;;34.45;26.22;100795.50;5031903;28;20815;-74
2023/07/29 10:19:26;;;;;;;2.60;2.20;;;;;;;34.54;25.82;100801.75;5032105;28;20370;-74
2023/07/29 10:21:52;;;;;;;2.95;2.10;;;;;;;34.54;25.34;100793.50;5031500;28;20385;-75
2023/07/29 10:24:29;;;;;;;2.97;1.98;;;;;;;34.51;25.51;100785.88;5031685;28;20375;-76
2023/07/29 10:27:00;;;;;;;4.32;2.38;;;;;;;34.49;25.02;100790.13;5031237;28;21004;-75
2023/07/29 10:29:37;;;;;;;5.75;2.17;;;;;;;34.63;25.35;100782.44;5031842;28;20920;-75
2023/07/29 10:32:03;;;;;;;3.97;2.40;;;;;;;34.72;25.09;100790.66;5032053;28;20483;-74
2023/07/29 10:34:31;;;;;;;4.23;2.23;;;;;;;34.80;25.51;100771.34;5031634;28;20374;-76
2023/07/29 10:36:57;;;;;;;2.10;1.65;;;;;;;34.98;24.76;100766.53;5047342;28;20390;-75
2023/07/29 10:39:24;;;;;;;2.53;2.33;;;;;;;35.06;25.10;100777.84;5023769;28;20758;-75
2023/07/29 10:42:02;;;;;;;2.97;2.10;;;;;;;34.80;25.28;100762.28;5029654;28;20397;-76
2023/07/29 10:44:39;;;;;;;2.20;2.00;;;;;;;34.78;25.62;100770.88;5030155;28;20451;-75
2023/07/29 10:47:25;;;;;;;3.38;2.17;;;;;;;34.84;25.63;100769.56;5029964;28;20402;-73
2023/07/29 10:49:56;;;;;;;3.22;2.15;;;;;;;34.95;26.03;100778.25;5029100;28;20386;-75
2023/07/29 10:52:51;;;;;;;4.90;2.25;;;;;;;34.91;25.28;100773.72;5029895;28;20377;-75
2023/07/29 10:55:32;;;;;;;2.47;2.28;;;;;;;34.83;24.76;100765.19;5017379;28;20409;-75
2023/07/29 10:58:09;;;;;;;3.87;2.10;;;;;;;34.84;24.77;100774.25;5030972;28;20398;-75
2023/07/29 11:00:35;;;;;;;4.00;1.95;;;;;;;34.94;24.92;100770.31;5030837;28;20712;-74
2023/07/29 11:03:03;;;;;;;2.20;1.60;;;;;;;34.97;25.20;100767.69;5030469;28;20393;-75
2023/07/29 11:05:53;;;;;;;2.85;2.10;;;;;;;35.04;25.11;100764.38;5030457;28;20498;-74
2023/07/29 11:08:29;;;;;;;7.40;4.00;;;;;;;35.02;25.07;100752.91;5030268;28;20394;-76
2023/07/29 11:11:07;;;;;;;4.50;2.00;;;;;;;35.15;23.97;100757.34;5030408;28;20386;-75
2023/07/29 11:13:35;;;;;;;1.80;1.70;;;;;;;35.14;24.07;100750.22;5032295;28;20362;-76
2023/07/29 11:16:02;;;;;;;7.55;2.28;;;;;;;35.25;24.15;100747.91;5034798;28;20949;-75
2023/07/29 11:18:29;;;;;;;2.00;1.80;;;;;;;35.31;24.56;100751.25;5034519;28;20401;-74
2023/07/29 11:20:56;;;;;;;2.50;1.80;;;;;;;35.33;24.27;100752.53;5050557;28;20374;-76
2023/07/29 11:23:28;;;;;;;2.57;1.67;;;;;;;35.47;23.73;100757.75;5034598;28;20406;-75